Time;durP1;ratioP1;P1;durP2;ratioP2;P2;SDS_P1;SDS_P2;PMS_P1;PMS_P2;Temp;Humidity;BMP_temperature;BMP_pressure;BME280_temperature;BME280_humidity;BME280_pressure;Samples;Min_cycle;Max_cycle;Signal;HPM_P1;HPM_P2
2024/04/11 00:00:37;;;;;;;;;;;;;;;10.57;59.23;101408.94;4538130;26;19960;-72
2024/04/11 00:02:37;;;;;;;;;;;;;;;10.49;58.80;101403.25;4538907;26;20054;-73
2024/04/11 00:04:37;;;;;;;;;;;;;;;10.41;58.78;101402.00;4507014;26;19935;-72
2024/04/11 00:06:39;;;;;;;;;;;;;;;10.30;58.73;101396.53;4538876;26;20264;-72
2024/04/11 00:08:39;;;;;;;;;;;;;;;10.24;58.74;101408.53;4539980;26;20404;-73
2024/04/11 00:10:40;;;;;;;;;;;;;;;10.22;58.98;101406.91;4548810;26;19935;-73
2024/04/11 00:12:40;;;;;;;;;;;;;;;10.24;59.30;101402.31;4540311;26;19928;-72
2024/04/11 00:14:44;;;;;;;;;;;;;;;10.22;59.19;101409.59;4541300;26;20447;-73
2024/04/11 00:16:45;;;;;;;;;;;;;;;10.18;59.33;101403.59;4541227;26;19956;-73
2024/04/11 00:18:45;;;;;;;;;;;;;;;10.17;59.06;101401.91;4540095;26;19935;-73
2024/04/11 00:20:45;;;;;;;;;;;;;;;10.02;59.49;101403.84;4506208;26;20343;-72
2024/04/11 00:22:50;;;;;;;;;;;;;;;10.02;59.99;101409.19;4543533;26;19940;-73
2024/04/11 00:24:51;;;;;;;;;;;;;;;10.15;59.90;101401.19;4545632;26;19928;-72
2024/04/11 00:26:51;;;;;;;;;;;;;;;10.15;59.63;101399.34;4548570;26;19935;-73
2024/04/11 00:28:53;;;;;;;;;;;;;;;10.22;59.74;101404.25;4548134;26;19939;-73
2024/04/11 00:30:53;;;;;;;;;;;;;;;10.30;60.20;101407.22;4547483;26;19935;-73
2024/04/11 00:32:53;;;;;;;;;;;;;;;10.30;59.81;101407.22;4516328;26;19936;-72
2024/04/11 00:34:54;;;;;;;;;;;;;;;10.34;59.29;101399.88;4547746;26;19932;-72
2024/04/11 00:36:55;;;;;;;;;;;;;;;10.52;58.39;101405.72;4543572;26;19936;-73
2024/04/11 00:38:55;;;;;;;;;;;;;;;10.50;58.51;101399.63;4540380;26;20341;-73
2024/04/11 00:40:57;;;;;;;;;;;;;;;10.57;58.41;101403.56;4548017;26;19936;-73
2024/04/11 00:42:57;;;;;;;;;;;;;;;10.57;58.08;101412.44;4549454;26;19935;-73
2024/04/11 00:44:57;;;;;;;;;;;;;;;10.57;58.13;101400.91;4549697;26;19931;-73
2024/04/11 00:46:58;;;;;;;;;;;;;;;10.54;57.73;101403.78;4518122;26;19928;-73
2024/04/11 00:48:58;;;;;;;;;;;;;;;10.54;57.90;101398.44;4550007;26;19935;-73
2024/04/11 00:50:59;;;;;;;;;;;;;;;10.59;57.45;101402.50;4517867;26;19949;-72
2024/04/11 00:53:01;;;;;;;;;;;;;;;10.58;57.43;101400.78;4546246;26;19935;-72
2024/04/11 00:55:02;;;;;;;;;;;;;;;10.57;57.53;101404.41;4546838;26;19988;-72
2024/04/11 00:57:07;;;;;;;;;;;;;;;10.52;57.47;101411.94;4546752;26;20444;-72
2024/04/11 00:59:09;;;;;;;;;;;;;;;10.55;58.12;101408.19;4545781;26;19973;-72
2024/04/11 01:01:09;;;;;;;;;;;;;;;10.55;58.31;101416.19;4546341;26;19935;-72
2024/04/11 01:03:10;;;;;;;;;;;;;;;10.63;57.64;101416.50;4548734;26;20309;-72
2024/04/11 01:05:10;;;;;;;;;;;;;;;10.56;58.28;101423.25;4548755;26;19936;-72
2024/04/11 01:07:12;;;;;;;;;;;;;;;10.67;57.91;101418.00;4537701;26;19934;-72
2024/04/11 01:09:19;;;;;;;;;;;;;;;10.40;58.26;101413.66;4505945;26;19929;-72
2024/04/11 01:11:19;;;;;;;;;;;;;;;10.41;58.78;101410.00;4536856;26;19936;-72
2024/04/11 01:13:23;;;;;;;;;;;;;;;10.48;58.55;101401.56;4537559;26;20351;-72
2024/04/11 01:15:24;;;;;;;;;;;;;;;10.49;58.31;101413.94;4537869;26;19928;-72
2024/04/11 01:17:24;;;;;;;;;;;;;;;10.48;57.89;101420.28;4538392;26;19935;-73
2024/04/11 01:19:24;;;;;;;;;;;;;;;10.41;58.06;101417.19;4537894;26;20428;-72
2024/04/11 01:21:26;;;;;;;;;;;;;;;10.36;58.54;101412.16;4536925;26;20271;-72
2024/04/11 01:23:26;;;;;;;;;;;;;;;10.32;58.89;101425.84;4537635;26;20657;-72
2024/04/11 01:25:29;;;;;;;;;;;;;;;10.27;58.95;101423.50;4536648;26;19928;-72
2024/04/11 01:27:29;;;;;;;;;;;;;;;10.21;58.95;101421.25;4505627;26;20430;-72
2024/04/11 01:29:29;;;;;;;;;;;;;;;10.15;58.80;101423.41;4537321;26;19936;-72
2024/04/11 01:31:30;;;;;;;;;;;;;;;10.18;58.71;101408.13;4536601;26;19928;-72
2024/04/11 01:33:30;;;;;;;;;;;;;;;10.21;59.02;101418.56;4538937;26;19935;-72
2024/04/11 01:35:31;;;;;;;;;;;;;;;10.25;59.04;101414.72;4540621;26;19935;-73
2024/04/11 01:37:31;;;;;;;;;;;;;;;10.22;58.56;101404.25;4541398;26;20245;-72
2024/04/11 01:39:32;;;;;;;;;;;;;;;10.18;59.15;101406.28;4548298;25;19996;-72
2024/04/11 01:41:32;;;;;;;;;;;;;;;10.15;59.05;101404.69;4560547;26;19931;-72
2024/04/11 01:43:32;;;;;;;;;;;;;;;10.10;59.53;101405.97;4568886;26;20131;-72
2024/04/11 01:45:33;;;;;;;;;;;;;;;10.12;59.26;101402.22;4575333;26;19927;-73
2024/04/11 01:47:37;;;;;;;;;;;;;;;10.02;59.54;101403.84;4539429;26;19944;-72
2024/04/11 01:49:37;;;;;;;;;;;;;;;10.00;60.11;101405.78;4559668;25;19934;-72
2024/04/11 01:51:37;;;;;;;;;;;;;;;10.02;59.72;101403.84;4588789;25;19959;-72
2024/04/11 01:53:38;;;;;;;;;;;;;;;10.04;59.67;101398.41;4580094;26;19934;-72
2024/04/11 01:55:38;;;;;;;;;;;;;;;9.98;60.03;101402.34;4553901;26;19934;-73
2024/04/11 01:57:39;;;;;;;;;;;;;;;9.94;60.13;101408.88;4570469;26;19946;-72
2024/04/11 01:59:41;;;;;;;;;;;;;;;9.84;60.35;101406.00;4586191;25;19932;-72
2024/04/11 02:01:41;;;;;;;;;;;;;;;9.93;59.86;101407.16;4579856;26;19939;-72
2024/04/11 02:03:43;;;;;;;;;;;;;;;9.76;60.44;101409.19;4571090;26;19928;-73
2024/04/11 02:05:43;;;;;;;;;;;;;;;9.87;60.63;101410.25;4571262;26;19927;-73
2024/04/11 02:07:44;;;;;;;;;;;;;;;9.93;60.09;101407.16;4570137;26;19927;-73
2024/04/11 02:09:44;;;;;;;;;;;;;;;9.76;60.49;101409.19;4570343;25;19973;-72
2024/04/11 02:11:47;;;;;;;;;;;;;;;9.62;60.80;101410.13;4570081;26;19927;-72
2024/04/11 02:13:47;;;;;;;;;;;;;;;9.64;60.38;101418.03;4570757;26;19942;-72
2024/04/11 02:15:48;;;;;;;;;;;;;;;9.76;60.46;101419.03;4570439;26;19940;-73
2024/04/11 02:17:49;;;;;;;;;;;;;;;9.79;60.23;101418.78;4570590;26;19928;-72
2024/04/11 02:19:50;;;;;;;;;;;;;;;9.82;60.07;101416.75;4570517;25;20352;-74
2024/04/11 02:21:50;;;;;;;;;;;;;;;9.82;60.00;101413.25;4571249;26;19968;-73
2024/04/11 02:23:51;;;;;;;;;;;;;;;9.82;59.91;101419.44;4573642;26;19927;-72
2024/04/11 02:25:51;;;;;;;;;;;;;;;9.73;60.37;101420.06;4573427;26;19934;-72
2024/04/11 02:27:53;;;;;;;;;;;;;;;9.80;59.96;101416.03;4570647;26;19927;-72
2024/04/11 02:29:53;;;;;;;;;;;;;;;9.79;60.06;101424.13;4571384;25;19956;-72
2024/04/11 02:31:54;;;;;;;;;;;;;;;9.79;60.19;101425.00;4541496;26;19927;-72
2024/04/11 02:33:57;;;;;;;;;;;;;;;9.63;60.12;101419.88;4558426;26;19928;-73
2024/04/11 02:35:58;;;;;;;;;;;;;;;9.52;61.18;101417.06;4539898;26;20234;-73
2024/04/11 02:37:58;;;;;;;;;;;;;;;9.59;60.57;101417.50;4507733;26;19935;-72
2024/04/11 02:39:58;;;;;;;;;;;;;;;9.61;60.39;101412.94;4538227;26;19928;-72
2024/04/11 02:42:00;;;;;;;;;;;;;;;9.50;61.27;101411.84;4540178;26;19940;-72
2024/04/11 02:44:00;;;;;;;;;;;;;;;9.55;61.24;101416.00;4539715;26;19951;-72
2024/04/11 02:46:00;;;;;;;;;;;;;;;9.37;61.31;101418.97;4539754;26;19932;-73
2024/04/11 02:48:03;;;;;;;;;;;;;;;9.45;61.58;101423.78;4539594;26;19996;-72
2024/04/11 02:50:06;;;;;;;;;;;;;;;9.46;61.26;101421.00;4507587;26;20353;-72
2024/04/11 02:52:07;;;;;;;;;;;;;;;9.52;60.87;101415.28;4538412;26;19935;-72
2024/04/11 02:54:09;;;;;;;;;;;;;;;9.53;60.94;101418.78;4508544;26;19968;-73
2024/04/11 02:56:11;;;;;;;;;;;;;;;9.57;60.66;101422.09;4540179;26;19944;-72
2024/04/11 02:58:11;;;;;;;;;;;;;;;9.60;60.77;101424.56;4540079;26;19927;-72
2024/04/11 03:00:16;;;;;;;;;;;;;;;9.51;61.26;101429.56;4539342;26;19928;-72
2024/04/11 03:02:17;;;;;;;;;;;;;;;9.57;60.86;101424.75;4539901;26;20485;-72
2024/04/11 03:04:17;;;;;;;;;;;;;;;9.55;61.11;101424.00;4539933;26;19936;-72
2024/04/11 03:06:17;;;;;;;;;;;;;;;9.55;61.08;101432.00;4539928;26;19928;-73
2024/04/11 03:08:19;;;;;;;;;;;;;;;9.53;61.03;101429.47;4539857;26;19940;-73
2024/04/11 03:10:19;;;;;;;;;;;;;;;9.57;60.71;101427.44;4539299;26;19928;-72
2024/04/11 03:12:20;;;;;;;;;;;;;;;9.49;60.72;101428.81;4540296;26;19938;-72
2024/04/11 03:14:20;;;;;;;;;;;;;;;9.42;61.39;101429.31;4508245;26;20250;-72
2024/04/11 03:16:21;;;;;;;;;;;;;;;9.39;61.57;101426.88;4540271;26;19935;-72
2024/04/11 03:18:21;;;;;;;;;;;;;;;9.43;61.24;101434.56;4540142;26;19928;-72
2024/04/11 03:20:21;;;;;;;;;;;;;;;9.41;60.83;101436.50;4538957;26;19935;-71
2024/04/11 03:22:22;;;;;;;;;;;;;;;9.21;61.84;101441.34;4540522;26;19932;-72
2024/04/11 03:24:22;;;;;;;;;;;;;;;9.26;61.85;101429.53;4540984;26;20317;-72
2024/04/11 03:26:23;;;;;;;;;;;;;;;9.06;62.41;101431.69;4508781;26;19957;-72
2024/04/11 03:28:23;;;;;;;;;;;;;;;9.00;62.32;101435.63;4541020;26;19947;-72
2024/04/11 03:30:29;;;;;;;;;;;;;;;8.98;62.24;101434.84;4507923;26;19929;-71
2024/04/11 03:32:30;;;;;;;;;;;;;;;8.80;62.87;101441.38;4541256;26;19940;-73
2024/04/11 03:34:31;;;;;;;;;;;;;;;8.74;63.14;101447.97;4541311;26;19932;-73
2024/04/11 03:36:32;;;;;;;;;;;;;;;8.70;63.09;101446.44;4541298;26;19928;-72
2024/04/11 03:38:32;;;;;;;;;;;;;;;8.55;63.66;101454.47;4540249;26;19939;-72
2024/04/11 03:40:33;;;;;;;;;;;;;;;8.41;64.13;101451.78;4540004;26;19928;-72
2024/04/11 03:42:34;;;;;;;;;;;;;;;8.27;64.51;101440.19;4509638;26;19928;-72
2024/04/11 03:44:35;;;;;;;;;;;;;;;8.25;64.34;101451.91;4540717;26;19928;-73
2024/04/11 03:46:36;;;;;;;;;;;;;;;8.24;64.46;101455.53;4540603;26;19928;-73
2024/04/11 03:48:37;;;;;;;;;;;;;;;8.26;64.49;101461.63;4540532;26;20361;-72
2024/04/11 03:50:39;;;;;;;;;;;;;;;8.22;64.26;101466.25;4539523;26;19928;-72
2024/04/11 03:52:40;;;;;;;;;;;;;;;8.37;64.12;101456.44;4540217;26;19927;-72
2024/04/11 03:54:41;;;;;;;;;;;;;;;8.31;63.90;101466.66;4539298;26;19935;-73
2024/04/11 03:56:41;;;;;;;;;;;;;;;8.22;63.76;101463.59;4507473;26;19936;-71
2024/04/11 03:58:42;;;;;;;;;;;;;;;8.08;64.14;101460.94;4539680;26;19928;-72
2024/04/11 04:00:46;;;;;;;;;;;;;;;8.11;64.19;101461.59;4539277;26;19939;-73
2024/04/11 04:02:46;;;;;;;;;;;;;;;8.22;64.53;101473.41;4513450;26;19928;-73
2024/04/11 04:04:47;;;;;;;;;;;;;;;8.04;64.86;101476.25;4552855;26;19977;-73
2024/04/11 04:06:48;;;;;;;;;;;;;;;7.92;65.26;101476.97;4551850;26;19948;-72
2024/04/11 04:08:49;;;;;;;;;;;;;;;7.80;65.96;101479.41;4572261;26;20202;-72
2024/04/11 04:10:50;;;;;;;;;;;;;;;7.78;66.14;101486.66;4539124;26;19936;-73
2024/04/11 04:12:53;;;;;;;;;;;;;;;7.73;66.58;101488.72;4570991;26;19939;-72
2024/04/11 04:14:53;;;;;;;;;;;;;;;7.83;66.19;101490.84;4569718;26;19935;-74
2024/04/11 04:16:54;;;;;;;;;;;;;;;8.07;65.17;101483.19;4569010;26;19934;-72
2024/04/11 04:18:57;;;;;;;;;;;;;;;8.31;64.34;101488.81;4536931;26;19936;-73
2024/04/11 04:20:58;;;;;;;;;;;;;;;8.34;64.19;101482.44;4568426;26;19955;-73
2024/04/11 04:22:58;;;;;;;;;;;;;;;8.42;63.61;101488.13;4537382;26;19928;-73
2024/04/11 04:24:59;;;;;;;;;;;;;;;8.33;63.45;101486.91;4569082;26;19927;-71
2024/04/11 04:26:59;;;;;;;;;;;;;;;8.40;64.09;101490.06;4570680;26;19935;-74
2024/04/11 04:29:00;;;;;;;;;;;;;;;8.47;63.50;101494.09;4568912;26;19927;-73
2024/04/11 04:31:11;;;;;;;;;;;;;;;8.49;63.37;101497.53;4567930;26;20440;-72
2024/04/11 04:33:12;;;;;;;;;;;;;;;8.52;63.15;101494.66;4568581;26;19927;-74
2024/04/11 04:35:13;;;;;;;;;;;;;;;8.62;62.57;101502.06;4568039;26;19928;-73
2024/04/11 04:37:13;;;;;;;;;;;;;;;8.61;62.57;101495.00;4568555;26;19927;-73
2024/04/11 04:39:16;;;;;;;;;;;;;;;8.50;62.87;101501.03;4536052;26;19934;-74
2024/04/11 04:41:17;;;;;;;;;;;;;;;8.50;63.01;101504.53;4567908;26;19928;-73
2024/04/11 04:43:17;;;;;;;;;;;;;;;8.51;62.84;101506.25;4568631;26;19934;-72
2024/04/11 04:45:19;;;;;;;;;;;;;;;8.53;62.96;101508.84;4569738;26;19934;-74
2024/04/11 04:47:28;;;;;;;;;;;;;;;8.47;62.66;101510.09;4537757;26;20035;-73
2024/04/11 04:49:28;;;;;;;;;;;;;;;8.43;62.51;101504.06;4569290;26;19943;-72
2024/04/11 04:51:31;;;;;;;;;;;;;;;8.41;62.99;101511.28;4537271;26;19956;-73
2024/04/11 04:53:32;;;;;;;;;;;;;;;8.45;62.86;101516.44;4569667;26;19935;-72
2024/04/11 04:55:32;;;;;;;;;;;;;;;8.43;62.86;101521.84;4569911;26;20332;-72
2024/04/11 04:57:33;;;;;;;;;;;;;;;8.46;62.61;101523.44;4568896;26;19972;-72
2024/04/11 04:59:33;;;;;;;;;;;;;;;8.46;62.71;101519.00;4568506;26;19927;-71
2024/04/11 05:01:33;;;;;;;;;;;;;;;8.46;62.52;101529.66;4567525;26;19931;-71
2024/04/11 05:03:38;;;;;;;;;;;;;;;8.48;62.44;101532.25;4568858;26;19927;-71
2024/04/11 05:05:39;;;;;;;;;;;;;;;8.53;62.25;101531.00;4569278;26;19928;-73
2024/04/11 05:07:41;;;;;;;;;;;;;;;8.53;62.22;101536.34;4571100;26;19927;-72
2024/04/11 05:09:45;;;;;;;;;;;;;;;8.54;62.20;101538.06;4571690;26;19935;-73
2024/04/11 05:11:46;;;;;;;;;;;;;;;8.38;62.21;101539.94;4570703;26;19934;-72
2024/04/11 05:13:46;;;;;;;;;;;;;;;8.41;62.13;101539.72;4573521;26;19927;-74
2024/04/11 05:15:55;;;;;;;;;;;;;;;8.46;62.21;101540.31;4581152;26;20266;-72
2024/04/11 05:17:56;;;;;;;;;;;;;;;8.36;61.95;101540.00;4548102;26;19928;-72
2024/04/11 05:19:57;;;;;;;;;;;;;;;8.10;63.36;101541.59;4571167;26;19955;-74
2024/04/11 05:21:57;;;;;;;;;;;;;;;8.01;64.13;101550.16;4570565;26;19927;-72
2024/04/11 05:23:58;;;;;;;;;;;;;;;8.05;64.05;101551.66;4571110;26;19995;-72
2024/04/11 05:26:07;;;;;;;;;;;;;;;8.03;64.53;101553.59;4572951;26;19954;-72
2024/04/11 05:28:07;;;;;;;;;;;;;;;8.20;64.42;101550.75;4579600;26;19934;-73
2024/04/11 05:30:11;;;;;;;;;;;;;;;8.33;63.36;101545.53;4575705;26;19927;-72
2024/04/11 05:32:11;;;;;;;;;;;;;;;8.18;64.25;101557.97;4574242;26;19967;-72
2024/04/11 05:34:16;;;;;;;;;;;;;;;8.32;63.57;101553.59;4572880;26;20003;-73
2024/04/11 05:36:21;;;;;;;;;;;;;;;8.43;63.43;101546.69;4571414;26;20395;-73
2024/04/11 05:38:21;;;;;;;;;;;;;;;8.49;63.03;101545.50;4571654;26;19959;-73
2024/04/11 05:40:22;;;;;;;;;;;;;;;8.62;62.62;101542.06;4569871;26;20439;-73
2024/04/11 05:42:24;;;;;;;;;;;;;;;8.62;62.50;101539.38;4570627;26;19927;-73
2024/04/11 05:44:24;;;;;;;;;;;;;;;8.51;62.71;101538.25;4571290;26;19928;-74
2024/04/11 05:46:24;;;;;;;;;;;;;;;8.53;62.79;101531.00;4570446;26;19938;-72
2024/04/11 05:48:25;;;;;;;;;;;;;;;8.47;62.56;101530.50;4570835;26;19928;-72
2024/04/11 05:50:25;;;;;;;;;;;;;;;8.54;62.67;101534.56;4570643;26;19928;-72
2024/04/11 05:52:31;;;;;;;;;;;;;;;8.62;62.40;101534.06;4538486;26;20449;-73
2024/04/11 05:54:31;;;;;;;;;;;;;;;8.73;62.48;101543.13;4570155;26;19931;-73
2024/04/11 05:56:34;;;;;;;;;;;;;;;8.85;62.23;101533.47;4570522;26;19976;-73
2024/04/11 05:58:35;;;;;;;;;;;;;;;8.89;61.62;101539.47;4569954;26;19939;-74
2024/04/11 06:00:35;;;;;;;;;;;;;;;8.84;61.90;101538.88;4569207;26;20277;-72
2024/04/11 06:02:38;;;;;;;;;;;;;;;8.92;61.96;101541.06;4569948;26;19928;-74
2024/04/11 06:04:38;;;;;;;;;;;;;;;9.07;61.28;101545.44;4570276;26;19935;-73
2024/04/11 06:06:39;;;;;;;;;;;;;;;9.17;61.46;101538.53;4570060;26;19931;-72
2024/04/11 06:08:42;;;;;;;;;;;;;;;9.17;61.04;101548.38;4570323;26;19980;-73
2024/04/11 06:10:43;;;;;;;;;;;;;;;9.24;61.36;101543.50;4570134;26;20333;-72
2024/04/11 06:12:44;;;;;;;;;;;;;;;9.14;61.81;101552.09;4570333;26;19991;-73
2024/04/11 06:14:45;;;;;;;;;;;;;;;8.86;62.40;101555.66;4570310;26;19928;-74
2024/04/11 06:16:45;;;;;;;;;;;;;;;9.07;61.95;101560.59;4538141;26;20000;-73
2024/04/11 06:18:45;;;;;;;;;;;;;;;9.22;61.82;101564.94;4570764;26;20810;-74
2024/04/11 06:20:46;;;;;;;;;;;;;;;9.23;62.02;101568.47;4572123;26;19934;-73
2024/04/11 06:22:51;;;;;;;;;;;;;;;9.27;61.38;101557.50;4571707;26;19938;-73
2024/04/11 06:24:52;;;;;;;;;;;;;;;9.39;60.77;101561.19;4570762;26;19934;-73
2024/04/11 06:26:52;;;;;;;;;;;;;;;9.34;61.46;101560.63;4571373;26;20356;-73
2024/04/11 06:28:53;;;;;;;;;;;;;;;9.40;60.93;101562.91;4538998;26;20339;-73
2024/04/11 06:30:54;;;;;;;;;;;;;;;9.10;61.86;101566.59;4569673;26;19927;-73
2024/04/11 06:32:57;;;;;;;;;;;;;;;9.28;61.95;101563.69;4570238;26;20241;-73
2024/04/11 06:34:58;;;;;;;;;;;;;;;9.21;61.91;101564.09;4537473;26;20287;-73
2024/04/11 06:36:58;;;;;;;;;;;;;;;9.17;62.01;101573.22;4570938;26;19927;-73
2024/04/11 06:39:01;;;;;;;;;;;;;;;9.32;61.70;101582.06;4568744;26;19939;-71
2024/04/11 06:41:02;;;;;;;;;;;;;;;9.42;62.06;101582.34;4568439;26;19939;-73
2024/04/11 06:43:03;;;;;;;;;;;;;;;9.36;62.24;101585.38;4569815;26;19927;-72
2024/04/11 06:45:03;;;;;;;;;;;;;;;9.34;62.43;101580.16;4569799;26;20382;-72
2024/04/11 06:47:04;;;;;;;;;;;;;;;9.45;61.92;101574.13;4569754;26;19927;-73
2024/04/11 06:49:04;;;;;;;;;;;;;;;9.76;60.84;101581.94;4569547;26;20619;-73
2024/04/11 06:51:06;;;;;;;;;;;;;;;9.87;60.80;101576.72;4569747;26;19927;-72
2024/04/11 06:53:08;;;;;;;;;;;;;;;10.00;59.66;101574.09;4570382;26;19928;-73
2024/04/11 06:55:14;;;;;;;;;;;;;;;9.92;60.37;101579.09;4569913;26;19996;-73
2024/04/11 06:57:15;;;;;;;;;;;;;;;9.98;60.11;101568.84;4569587;26;19932;-74
2024/04/11 06:59:17;;;;;;;;;;;;;;;9.83;59.87;101577.91;4569926;26;19996;-73
2024/04/11 07:01:17;;;;;;;;;;;;;;;9.83;60.08;101578.75;4569060;26;19927;-73
2024/04/11 07:03:25;;;;;;;;;;;;;;;9.94;59.59;101582.50;4537408;26;19979;-74
2024/04/11 07:05:25;;;;;;;;;;;;;;;10.04;59.54;101580.09;4538084;26;19935;-73
2024/04/11 07:07:27;;;;;;;;;;;;;;;10.25;58.55;101578.59;4569745;26;19927;-73
2024/04/11 07:09:37;;;;;;;;;;;;;;;10.41;57.88;101575.75;4569535;26;19928;-72
2024/04/11 07:11:40;;;;;;;;;;;;;;;10.49;57.40;101572.56;4569206;26;19938;-72
2024/04/11 07:13:41;;;;;;;;;;;;;;;10.58;57.74;101577.28;4569613;26;19998;-72
2024/04/11 07:15:42;;;;;;;;;;;;;;;10.80;57.02;101577.56;4570544;26;19938;-73
2024/04/11 07:17:53;;;;;;;;;;;;;;;10.59;57.26;101568.28;4571721;26;19928;-73
2024/04/11 07:19:58;;;;;;;;;;;;;;;10.56;57.48;101575.69;4572932;26;20005;-74
2024/04/11 07:21:58;;;;;;;;;;;;;;;10.48;57.37;101580.72;4539913;26;20427;-73
2024/04/11 07:23:58;;;;;;;;;;;;;;;10.79;57.10;101574.06;4579333;26;19939;-74
2024/04/11 07:26:00;;;;;;;;;;;;;;;11.04;56.13;101578.50;4581059;26;20427;-73
2024/04/11 07:28:07;;;;;;;;;;;;;;;11.26;55.73;101565.38;4582742;26;19939;-74
2024/04/11 07:30:11;;;;;;;;;;;;;;;11.20;56.06;101566.69;4580062;26;19927;-74
2024/04/11 07:32:12;;;;;;;;;;;;;;;11.49;55.26;101566.38;4574703;26;19927;-73
2024/04/11 07:34:14;;;;;;;;;;;;;;;11.41;55.44;101568.75;4571356;26;19934;-73
2024/04/11 07:36:16;;;;;;;;;;;;;;;11.46;55.30;101563.91;4569667;26;19927;-74
2024/04/11 07:38:17;;;;;;;;;;;;;;;11.62;55.18;101571.66;4568832;26;19999;-72
2024/04/11 07:40:32;;;;;;;;;;;;;;;11.76;54.97;101566.09;4567355;26;19928;-72
2024/04/11 07:42:55;;;;;;;;;;;;;;;12.33;53.81;101561.81;4569138;26;19934;-72
2024/04/11 07:44:56;;;;;;;;;;;;;;;12.38;53.91;101552.53;4569544;26;19934;-72
2024/04/11 07:46:58;;;;;;;;;;;;;;;12.58;52.92;101551.00;4568927;26;19928;-73
2024/04/11 07:48:59;;;;;;;;;;;;;;;12.86;52.16;101546.13;4569259;26;19938;-73
2024/04/11 07:51:02;;;;;;;;;;;;;;;13.39;51.49;101534.69;4568278;26;19928;-74
2024/04/11 07:53:14;;;;;;;;;;;;;;;13.49;50.74;101541.03;4569393;26;19959;-73
2024/04/11 07:55:14;;;;;;;;;;;;;;;13.75;50.44;101537.09;4569454;26;19927;-72
2024/04/11 07:57:19;;;;;;;;;;;;;;;14.10;50.13;101542.19;4569282;26;19927;-72
2024/04/11 07:59:20;;;;;;;;;;;;;;;14.42;49.36;101532.31;4568740;26;19928;-72
2024/04/11 08:01:22;;;;;;;;;;;;;;;14.69;48.64;101537.16;4568062;26;19934;-72
2024/04/11 08:03:23;;;;;;;;;;;;;;;15.20;47.75;101534.47;4568227;26;20252;-71
2024/04/11 08:05:24;;;;;;;;;;;;;;;15.05;48.25;101547.47;4536316;26;20028;-71
2024/04/11 08:07:25;;;;;;;;;;;;;;;15.61;46.49;101540.59;4568489;26;20016;-71
2024/04/11 08:09:25;;;;;;;;;;;;;;;16.06;45.67;101536.50;4568539;26;19939;-71
2024/04/11 08:11:34;;;;;;;;;;;;;;;16.34;45.00;101539.28;4568023;26;19935;-72
2024/04/11 08:13:35;;;;;;;;;;;;;;;16.64;44.22;101527.34;4568239;26;19927;-72
2024/04/11 08:15:35;;;;;;;;;;;;;;;16.90;43.61;101526.69;4568998;26;19951;-72
2024/04/11 08:17:37;;;;;;;;;;;;;;;16.69;44.27;101522.38;4568593;26;20090;-72
2024/04/11 08:19:38;;;;;;;;;;;;;;;16.22;44.66;101530.50;4568853;26;19953;-72
2024/04/11 08:21:38;;;;;;;;;;;;;;;16.21;44.44;101528.78;4535698;26;19932;-72
2024/04/11 08:23:39;;;;;;;;;;;;;;;16.71;43.32;101524.09;4568224;26;19928;-72
2024/04/11 08:25:39;;;;;;;;;;;;;;;17.18;42.36;101521.28;4568024;26;19935;-72
2024/04/11 08:27:40;;;;;;;;;;;;;;;17.63;41.29;101519.50;4568777;26;19935;-72
2024/04/11 08:29:40;;;;;;;;;;;;;;;17.21;42.28;101534.47;4568262;26;19936;-71
2024/04/11 08:31:41;;;;;;;;;;;;;;;17.74;41.46;101526.56;4567371;26;19927;-72
2024/04/11 08:33:42;;;;;;;;;;;;;;;17.01;42.15;101533.75;4568569;26;19928;-71
2024/04/11 08:35:44;;;;;;;;;;;;;;;16.92;42.26;101538.16;4568334;26;19927;-71
2024/04/11 08:37:54;;;;;;;;;;;;;;;16.94;42.37;101536.22;4536610;26;19928;-71
2024/04/11 08:39:55;;;;;;;;;;;;;;;17.85;40.82;101539.84;4566973;26;20003;-72
2024/04/11 08:41:55;;;;;;;;;;;;;;;18.39;39.48;101526.19;4569344;26;19927;-71
2024/04/11 08:43:56;;;;;;;;;;;;;;;18.10;40.53;101529.22;4571493;26;19946;-72
2024/04/11 08:45:58;;;;;;;;;;;;;;;18.06;40.47;101530.53;4570982;26;19943;-71
2024/04/11 08:47:58;;;;;;;;;;;;;;;17.68;40.86;101532.56;4571007;26;20566;-71
2024/04/11 08:49:58;;;;;;;;;;;;;;;18.12;40.50;101529.06;4571382;26;19927;-72
2024/04/11 08:51:59;;;;;;;;;;;;;;;18.22;40.15;101529.81;4538218;26;19936;-73
2024/04/11 08:54:02;;;;;;;;;;;;;;;18.58;39.43;101528.84;4571067;26;19928;-72
2024/04/11 08:56:03;;;;;;;;;;;;;;;18.81;38.72;101529.94;4571502;26;19927;-72
2024/04/11 08:58:05;;;;;;;;;;;;;;;18.81;38.35;101529.94;4571145;26;19935;-71
2024/04/11 09:00:12;;;;;;;;;;;;;;;19.47;37.25;101524.72;4571236;26;19933;-72
2024/04/11 09:02:13;;;;;;;;;;;;;;;19.97;36.13;101527.47;4575602;26;19927;-72
2024/04/11 09:04:13;;;;;;;;;;;;;;;20.35;35.44;101535.06;4575210;26;19934;-72
2024/04/11 09:06:16;;;;;;;;;;;;;;;20.63;34.62;101524.63;4573312;26;19927;-72
2024/04/11 09:08:18;;;;;;;;;;;;;;;20.72;35.09;101520.00;4538452;26;19932;-72
2024/04/11 09:10:19;;;;;;;;;;;;;;;20.13;35.87;101536.63;4536977;26;20697;-71
2024/04/11 09:12:22;;;;;;;;;;;;;;;19.85;36.15;101539.66;4571121;26;19928;-72
2024/04/11 09:14:26;;;;;;;;;;;;;;;19.40;36.52;101539.97;4570893;26;19931;-71
2024/04/11 09:16:27;;;;;;;;;;;;;;;20.33;35.33;101537.13;4572215;26;19934;-72
2024/04/11 09:18:27;;;;;;;;;;;;;;;20.23;34.80;101540.00;4570776;26;19927;-72
2024/04/11 09:20:32;;;;;;;;;;;;;;;19.40;35.16;101539.97;4569770;26;19934;-72
2024/04/11 09:22:34;;;;;;;;;;;;;;;20.26;33.47;101542.38;4574992;26;19933;-72
2024/04/11 09:24:34;;;;;;;;;;;;;;;20.40;33.24;101544.38;4570110;26;19994;-71
2024/04/11 09:26:35;;;;;;;;;;;;;;;20.45;33.62;101543.84;4571255;26;19945;-71
2024/04/11 09:28:36;;;;;;;;;;;;;;;19.84;33.71;101546.13;4570223;26;19928;-72
2024/04/11 09:30:39;;;;;;;;;;;;;;;19.91;33.05;101552.59;4537196;26;19927;-72
2024/04/11 09:32:44;;;;;;;;;;;;;;;20.52;32.57;101544.00;4570792;26;19934;-72
2024/04/11 09:34:47;;;;;;;;;;;;;;;21.01;31.95;101549.28;4573092;26;19931;-72
2024/04/11 09:36:49;;;;;;;;;;;;;;;21.57;30.73;101540.09;4571945;26;20364;-72
2024/04/11 09:38:53;;;;;;;;;;;;;;;21.26;31.46;101551.84;4578314;26;19928;-72
2024/04/11 09:40:55;;;;;;;;;;;;;;;20.67;32.04;101553.16;4572808;26;19927;-71
2024/04/11 09:43:03;;;;;;;;;;;;;;;20.78;32.06;101548.38;4570042;26;20259;-73
2024/04/11 09:45:10;;;;;;;;;;;;;;;21.39;31.66;101551.31;4570160;26;19928;-72
2024/04/11 09:47:11;;;;;;;;;;;;;;;21.73;31.47;101543.75;4570031;26;19959;-72
2024/04/11 09:49:14;;;;;;;;;;;;;;;22.23;31.25;101544.19;4569768;26;19991;-72
2024/04/11 09:51:15;;;;;;;;;;;;;;;22.16;30.93;101548.66;4570529;26;19938;-72
2024/04/11 09:53:26;;;;;;;;;;;;;;;22.03;30.90;101549.28;4537424;26;20648;-72
2024/04/11 09:55:36;;;;;;;;;;;;;;;21.49;30.99;101559.22;4569814;26;19927;-72
2024/04/11 09:57:38;;;;;;;;;;;;;;;20.91;31.15;101558.69;4537702;26;20057;-73
2024/04/11 09:59:38;;;;;;;;;;;;;;;;;;4569887;26;20655;-72
2024/04/11 10:01:38;;;;;;;;;;;;;;;21.63;29.76;101553.00;4568922;26;19934;-73
2024/04/11 10:03:41;;;;;;;;;;;;;;;21.86;28.99;101546.72;4569393;26;19931;-72
2024/04/11 10:05:51;;;;;;;;;;;;;;;21.83;28.45;101557.13;4569563;26;19935;-71
2024/04/11 10:07:58;;;;;;;;;;;;;;;21.74;28.39;101559.91;4569397;26;20004;-71
2024/04/11 10:09:59;;;;;;;;;;;;;;;21.97;28.84;101559.03;4568807;26;19935;-71
2024/04/11 10:12:03;;;;;;;;;;;;;;;22.46;28.22;101555.03;4569128;26;19934;-72
2024/04/11 10:14:05;;;;;;;;;;;;;;;22.44;27.58;101555.19;4569052;26;19934;-72
2024/04/11 10:16:06;;;;;;;;;;;;;;;22.89;27.39;101552.47;4569118;26;20362;-72
2024/04/11 10:18:10;;;;;;;;;;;;;;;23.11;27.53;101552.53;4569106;26;19934;-72
2024/04/11 10:20:12;;;;;;;;;;;;;;;23.00;27.27;101550.28;4568401;26;19927;-74
2024/04/11 10:22:15;;;;;;;;;;;;;;;22.62;26.78;101550.41;4568861;26;20002;-72
2024/04/11 10:24:23;;;;;;;;;;;;;;;22.50;26.80;101553.59;4568680;26;19927;-72
2024/04/11 10:26:33;;;;;;;;;;;;;;;23.03;26.24;101548.00;4569125;26;19927;-72
2024/04/11 10:28:46;;;;;;;;;;;;;;;22.30;26.64;101547.84;4569443;26;19959;-72
2024/04/11 10:30:50;;;;;;;;;;;;;;;22.38;26.40;101552.38;4568453;26;20469;-72